• Join FlightAware (Why Join?)
  • Login
  • US Flag 
03:01AM EDT


 

Airport Tracker/Info


-or-


 

Live Flight TrackerFlight Track Log ✈ RPA3392 ✈ 07-Jun-2013 ✈ KDCA - KALB

Flight Track Log - Related Links

Times and Time Zones

All times are in EDT time to prevent confusion due to time zone crossing. See the RPA3392 flight status page for this flight to view local times or setup timezone preferences in your user account.

Time Position Orientation Groundspeed Altitude Reporting Facility
EDT Latitude Longitude Course Direction KTS MPH feet Rate Location/Type
10:08PM 38.8753 -77.0556 90° East 153 176 1,400  Level Washington Center
10:09PM 38.9144 -77.1017 318° Northwest 211 243 3,300 2,040 Climbing Washington Center
10:10PM 38.9782 -76.6602 57° Northeast  Level FlightAware Approximate
10:10PM 38.9556 -77.1453 320° Northwest 231 266 5,500  Level Washington Center
10:11PM 39.0271 -76.5355 67° East  Level FlightAware Approximate
10:11PM 39.0261 -77.1547 354° North 209 241 9,100  Level Washington Center
10:12PM 39.0764 -76.4106 61° Northeast  Level FlightAware Approximate
10:12PM 39.0422 -77.0428 79° East 190 219 10,800  Level Washington Center
10:13PM 39.1167 -76.2837 90° East  Level FlightAware Approximate
10:13PM 39.0603 -76.9147 80° East 292 336 12,700  Level Washington Center
10:14PM 39.0764 -76.7789 81° East 339 390 14,800 1,860 Climbing Washington Center
10:15PM 39.0944 -76.6372 81° East 371 427 16,500 1,980 Climbing Washington Center
10:16PM 39.1122 -76.4958 81° East 390 449 18,700 1,260 Climbing Washington Center
10:17PM 39.1319 -76.3461 80° East 402 463 19,000 120 Climbing Washington Center
10:18PM 39.1494 -76.2044 81° East 408 470 19,000  Level Washington Center
10:19PM 39.1731 -76.0575 78° East 408 470 19,000 600 Level Washington Center
10:20PM 39.1922 -75.9075 81° East 413 475 20,300 1,500 Climbing Washington Center
10:21PM 39.2675 -75.7847 52° Northeast 408 470 22,000 1,320 Climbing Washington Center
10:22PM 39.3550 -75.6747 44° Northeast 420 483 23,000 540 Climbing Washington Center
10:23PM 39.4406 -75.5594 46° Northeast 425 489 23,100 660 Climbing Washington Center
10:24PM 39.5300 -75.4436 45° Northeast 440 506 24,300 900 Climbing Washington Center
10:26PM 39.6783 -75.2511 45° Northeast 464 534 25,600 600 Climbing New York Center
10:27PM 39.7667 -75.1189 49° Northeast 471 542 26,000 300 Climbing New York Center
10:28PM 39.8547 -74.9892 48° Northeast 476 548 26,300 600 Climbing New York Center
10:29PM 39.9489 -74.8622 46° Northeast 476 548 27,200 900 Climbing New York Center
10:30PM 40.0367 -74.7344 48° Northeast 481 554 28,100 720 Climbing New York Center
10:31PM 40.1258 -74.6203 44° Northeast 486 559 28,700 420 Climbing New York Center
10:32PM 40.2319 -74.4983 41° Northeast 498 573 29,000 120 Climbing New York Center
10:33PM 40.3378 -74.3789 41° Northeast 498 573 29,000  Level New York Center
10:34PM 40.4414 -74.2617 41° Northeast 498 573 29,000  Level New York Center
10:35PM 40.5489 -74.1386 41° Northeast 498 573 29,000 -1,200 Level New York Center
10:36PM 40.6567 -74.0128 42° Northeast 498 573 26,700 -1,440 Descending New York Center
10:38PM 40.9197 -73.7092 41° Northeast 480 552 24,000 -1,020 Descending Boston Center
10:39PM 41.0372 -73.6508 21° North 458 527 23,300 -600 Descending Boston Center
10:40PM 41.1642 -73.6614 356° North 430 495 22,900 -660 Descending Boston Center
10:41PM 41.2872 -73.6639 359° North 435 501 22,000 -1,200 Descending Boston Center
10:42PM 41.4083 -73.6442 North 435 501 20,600 -1,320 Descending Boston Center
10:43PM 41.5231 -73.6242 North 430 495 19,400 -1,260 Descending Boston Center
10:44PM 41.6233 -73.6064 North 407 468 18,100 -1,500 Descending Boston Center
10:45PM 41.7444 -73.5864 North 407 468 16,400 -1,620 Descending Boston Center
10:46PM 41.8467 -73.5714 North 407 468 14,900 -1,560 Descending Boston Center
10:47PM 41.9031 -73.5614 North 414 476 14,200 -1,800 Descending Boston Center
10:47PM 41.9678 -73.5514 North 407 468 13,100 -1,680 Descending Boston Center
10:48PM 42.0633 -73.5614 356° North 366 421 11,700 -1,080 Descending Boston Center
10:49PM 42.1569 -73.5939 346° North 337 388 11,000 -780 Descending Boston Center
10:50PM 42.2400 -73.6264 344° North 310 357 10,200 -1,200 Descending Boston Center
10:51PM 42.3167 -73.6728 336° Northwest 289 333 8,700 -1,560 Descending Boston Center
10:52PM 42.3869 -73.7164 335° Northwest 283 326 7,100 -1,680 Descending Boston Center
10:53PM 42.4636 -73.7628 336° Northwest 277 319 5,400 -1,560 Descending Boston Center
10:54PM 42.5319 -73.7953 341° North 275 316 4,000 -1,380 Descending Boston Center
10:55PM 42.6006 -73.8025 356° North 247 284 2,700 -1,320 Descending Boston Center
10:55PM 42.6006 -73.8025 356° North 260 299 2,700  Level Boston Center